Time;durP1;ratioP1;P1;durP2;ratioP2;P2;SDS_P1;SDS_P2;PMS_P1;PMS_P2;Temp;Humidity;BMP_temperature;BMP_pressure;BME280_temperature;BME280_humidity;BME280_pressure;Samples;Min_cycle;Max_cycle;Signal;HPM_P1;HPM_P2
2024/02/09 00:01:52;;;;;;;8.97;3.00;;;;;;;12.26;66.66;93369.28;5025376;28;20208;-84
2024/02/09 00:04:19;;;;;;;8.60;2.80;;;;;;;12.27;66.85;93366.47;5034363;28;20245;-85
2024/02/09 00:06:45;;;;;;;5.97;2.60;;;;;;;12.20;67.05;93357.34;5029368;28;20245;-84
2024/02/09 00:09:13;;;;;;;9.07;3.13;;;;;;;12.18;66.88;93367.91;5020545;28;20264;-84
2024/02/09 00:11:39;;;;;;;6.53;2.73;;;;;;;12.21;66.98;93358.91;5022603;28;20208;-84
2024/02/09 00:14:06;;;;;;;11.57;2.77;;;;;;;12.22;66.62;93340.63;5035061;28;20202;-85
2024/02/09 00:16:32;;;;;;;6.40;2.53;;;;;;;12.30;66.62;93331.69;5033155;28;20665;-84
2024/02/09 00:19:00;;;;;;;6.90;2.67;;;;;;;12.27;66.78;93335.53;5033579;28;20260;-84
2024/02/09 00:21:26;;;;;;;5.37;2.40;;;;;;;12.25;66.86;93344.53;5029595;28;20201;-84
2024/02/09 00:23:53;;;;;;;5.40;2.43;;;;;;;12.30;66.89;93342.00;5032248;28;20198;-85
2024/02/09 00:26:20;;;;;;;10.07;2.77;;;;;;;12.35;67.20;93347.19;5034984;28;20292;-85
2024/02/09 00:28:47;;;;;;;8.43;2.50;;;;;;;12.37;67.18;93345.16;5035537;28;20217;-85
2024/02/09 00:31:13;;;;;;;7.17;3.23;;;;;;;12.36;66.96;93331.47;5028743;28;20773;-83
2024/02/09 00:33:40;;;;;;;6.67;2.90;;;;;;;12.37;66.94;93319.34;5020414;28;20209;-85
2024/02/09 00:36:07;;;;;;;4.00;2.50;;;;;;;12.35;66.84;93309.28;5023183;28;20325;-84
2024/02/09 00:38:37;;;;;;;5.37;2.67;;;;;;;12.29;67.22;93317.22;5022235;28;20201;-85
2024/02/09 00:41:05;;;;;;;12.23;2.90;;;;;;;12.30;67.19;93313.63;5035502;28;20601;-85
2024/02/09 00:43:32;;;;;;;6.33;2.47;;;;;;;12.31;67.16;93315.97;5029916;28;20221;-83
2024/02/09 00:46:01;;;;;;;8.27;2.63;;;;;;;12.29;67.56;93323.16;5016550;28;20226;-85
2024/02/09 00:48:28;;;;;;;7.87;3.00;;;;;;;12.31;67.66;93328.88;5017438;28;20247;-84
2024/02/09 00:50:54;;;;;;;7.87;3.07;;;;;;;12.34;67.85;93330.16;5032168;28;20202;-84
2024/02/09 00:53:22;;;;;;;4.73;2.93;;;;;;;12.36;68.00;93328.91;5031305;28;20257;-84
2024/02/09 00:55:49;;;;;;;5.50;2.80;;;;;;;12.28;68.19;93328.56;5035763;28;20230;-84
2024/02/09 00:58:15;;;;;;;6.57;3.10;;;;;;;12.25;68.20;93339.34;5029004;28;20203;-85
2024/02/09 01:00:43;;;;;;;7.23;2.60;;;;;;;12.26;67.78;93325.44;5020913;28;20191;-85
2024/02/09 01:03:10;;;;;;;9.00;2.80;;;;;;;12.24;67.94;93319.75;5024862;28;20214;-85
2024/02/09 01:05:36;;;;;;;7.27;3.10;;;;;;;12.23;68.23;93328.50;5024122;28;20242;-84
2024/02/09 01:08:06;;;;;;;5.70;3.17;;;;;;;12.23;68.04;93337.03;5038388;28;20226;-84
2024/02/09 01:10:32;;;;;;;5.30;2.60;;;;;;;12.20;68.33;93350.41;5037720;28;20210;-84
2024/02/09 02:46:12;;;;;;;3.43;2.10;;;;;;;11.61;72.06;93350.16;5031133;28;20250;-84
2024/02/09 03:05:05;;;;;;;3.27;2.23;;;;;;;11.31;73.35;93388.38;5022840;28;20230;-83
2024/02/09 03:07:33;;;;;;;3.53;2.07;;;;;;;11.32;73.93;93382.97;5021774;28;20228;-83
2024/02/09 03:10:01;;;;;;;5.67;2.00;;;;;;;11.33;73.92;93376.81;5015875;28;20221;-83
2024/02/09 03:12:30;;;;;;;3.37;1.97;;;;;;;11.36;73.39;93372.97;5029455;28;20630;-84
2024/02/09 03:14:59;;;;;;;2.33;1.70;;;;;;;11.40;73.15;93363.75;5032603;28;20222;-83
2024/02/09 03:17:26;;;;;;;3.63;2.10;;;;;;;11.49;72.48;93331.44;5034025;28;20237;-83
2024/02/09 03:19:54;;;;;;;5.07;2.50;;;;;;;11.46;72.54;93321.59;5028650;28;20190;-84
2024/02/09 03:22:20;;;;;;;3.53;2.23;;;;;;;11.45;72.59;93319.25;5019937;28;20261;-84
2024/02/09 03:24:47;;;;;;;3.70;2.13;;;;;;;11.47;72.43;93319.81;5025655;28;20301;-83
2024/02/09 03:27:15;;;;;;;2.57;2.00;;;;;;;11.41;73.03;93330.03;5033714;28;20198;-83
2024/02/09 03:29:42;;;;;;;3.77;2.07;;;;;;;11.40;72.75;93323.31;5034259;28;20626;-85
2024/02/09 03:32:09;;;;;;;4.50;2.50;;;;;;;11.46;72.30;93324.19;5031399;28;20213;-83
2024/02/09 03:34:35;;;;;;;5.10;2.13;;;;;;;11.55;72.00;93321.97;5022814;28;20258;-86
2024/02/09 03:37:02;;;;;;;5.70;2.10;;;;;;;11.65;71.82;93316.94;5012302;28;20218;-86
2024/02/09 03:39:29;;;;;;;4.50;2.30;;;;;;;11.72;71.37;93315.00;5011627;28;20198;-86
2024/02/09 03:41:55;;;;;;;3.27;2.17;;;;;;;11.75;71.10;93293.88;5020179;28;20194;-85
2024/02/09 03:44:23;;;;;;;2.83;2.23;;;;;;;11.79;70.89;93300.13;5032787;28;20313;-86
2024/02/09 03:46:50;;;;;;;4.60;2.20;;;;;;;11.80;70.73;93298.34;5022445;28;20197;-86
2024/02/09 03:49:16;;;;;;;7.20;2.40;;;;;;;11.81;70.64;93282.63;5032670;28;20226;-86
2024/02/09 03:51:43;;;;;;;5.10;2.30;;;;;;;11.74;70.65;93277.63;5031878;28;20197;-85
2024/02/09 03:54:10;;;;;;;4.10;2.20;;;;;;;11.76;70.85;93283.34;5034277;28;20229;-86
2024/02/09 03:56:36;;;;;;;7.47;2.30;;;;;;;11.76;70.76;93288.50;5017799;28;20198;-86
2024/02/09 03:59:03;;;;;;;3.37;2.37;;;;;;;11.78;70.67;93277.97;5014761;28;20566;-87
2024/02/09 04:01:33;;;;;;;4.83;2.30;;;;;;;11.78;71.05;93277.97;5037450;28;20240;-85
2024/02/09 04:04:00;;;;;;;3.80;2.10;;;;;;;11.78;70.93;93283.13;5038925;28;20210;-86
2024/02/09 04:06:29;;;;;;;6.00;2.40;;;;;;;11.84;71.02;93283.97;5022425;28;20234;-85
2024/02/09 04:09:05;;;;;;;3.27;2.20;;;;;;;11.89;70.98;93276.28;5018662;28;20229;-85
2024/02/09 04:11:32;;;;;;;3.03;2.00;;;;;;;11.95;71.08;93277.88;5017242;28;20195;-85
2024/02/09 04:19:38;;;;;;;3.00;2.23;;;;;;;12.02;70.25;93266.38;4973149;28;20250;-85
2024/02/09 04:25:07;;;;;;;6.17;2.00;;;;;;;12.07;69.91;93245.81;4970602;28;20228;-84
2024/02/09 04:30:51;;;;;;;3.00;2.53;;;;;;;11.99;69.64;93229.97;4941952;29;20619;-86
2024/02/09 04:33:33;;;;;;;5.77;2.60;;;;;;;11.93;70.04;93244.59;4943737;29;20209;-85
2024/02/09 04:36:01;;;;;;;3.73;2.47;;;;;;;11.97;70.05;93237.94;4954144;29;20221;-85
2024/02/09 04:38:59;;;;;;;4.47;2.70;;;;;;;11.99;69.59;93222.25;4963164;29;20223;-85
2024/02/09 04:41:31;;;;;;;4.20;2.20;;;;;;;12.03;70.03;93236.22;4954423;29;20204;-85
2024/02/09 04:44:11;;;;;;;6.97;2.50;;;;;;;12.08;70.27;93249.16;4954207;28;20283;-86
2024/02/09 04:46:49;;;;;;;3.80;2.40;;;;;;;12.09;70.50;93261.03;4944986;29;20608;-84
2024/02/09 04:49:34;;;;;;;6.10;2.40;;;;;;;12.09;70.65;93258.47;4951606;29;20221;-85
2024/02/09 04:52:05;;;;;;;6.03;2.40;;;;;;;12.09;70.80;93261.03;4959194;29;20211;-84
2024/02/09 04:54:33;;;;;;;5.20;2.43;;;;;;;12.10;71.09;93273.69;4960286;29;20301;-84
2024/02/09 04:57:26;;;;;;;2.93;2.40;;;;;;;12.09;71.43;93279.09;4961732;29;20208;-83
2024/02/09 05:00:05;;;;;;;2.80;2.40;;;;;;;12.08;71.68;93282.69;4948199;29;20200;-84
2024/02/09 05:05:55;;;;;;;5.87;2.17;;;;;;;12.02;71.49;93286.22;4957905;28;20731;-84
2024/02/09 05:08:37;;;;;;;2.90;2.30;;;;;;;12.00;71.31;93275.38;4960143;29;20216;-84
2024/02/09 05:11:11;;;;;;;4.00;2.67;;;;;;;11.95;70.73;93241.78;4962549;29;20223;-84
2024/02/09 05:14:19;;;;;;;5.07;2.20;;;;;;;11.86;71.25;93251.78;4962428;29;20200;-85
2024/02/09 05:20:26;;;;;;;7.33;2.90;;;;;;;11.56;72.71;93290.81;4920531;29;20201;-84
2024/02/09 05:23:09;;;;;;;4.93;3.23;;;;;;;11.61;72.67;93285.72;4908512;29;20204;-84
2024/02/09 05:25:42;;;;;;;8.77;3.27;;;;;;;11.72;72.59;93300.31;4939722;29;20229;-84
2024/02/09 05:28:38;;;;;;;;;;;;;;;;;;;;;
2024/02/09 05:32:09;;;;;;;3.57;2.93;;;;;;;11.79;72.59;93284.69;4940729;29;20197;-84
2024/02/09 05:34:46;;;;;;;5.50;2.67;;;;;;;11.87;72.42;93283.50;4818676;29;20246;-84
2024/02/09 05:37:24;;;;;;;5.50;2.60;;;;;;;11.81;72.30;93272.31;4935935;29;20293;-84
2024/02/09 05:40:32;;;;;;;3.90;2.70;;;;;;;11.81;71.85;93261.22;4937943;29;20278;-84
2024/02/09 05:43:54;;;;;;;;;;;;;;;;;;;;;
2024/02/09 05:46:27;;;;;;;3.73;2.80;;;;;;;11.84;71.34;93240.13;4872122;29;20704;-83
2024/02/09 05:49:17;;;;;;;2.60;2.40;;;;;;;11.84;70.97;93234.97;4938260;29;20221;-83
2024/02/09 05:51:44;;;;;;;6.30;2.63;;;;;;;11.84;71.11;93234.97;4891070;29;20200;-84
2024/02/09 05:54:37;;;;;;;3.33;2.73;;;;;;;11.76;70.96;93229.22;4939676;29;20202;-83
2024/02/09 05:57:39;;;;;;;4.30;2.67;;;;;;;11.70;70.92;93224.25;4940291;29;20268;-84
2024/02/09 06:00:19;;;;;;;6.03;2.63;;;;;;;11.61;71.19;93231.59;4934498;29;20225;-84
2024/02/09 06:06:10;;;;;;;5.13;2.90;;;;;;;11.63;71.02;93233.94;4958118;23;20233;-84
2024/02/09 06:08:39;;;;;;;3.37;2.60;;;;;;;11.67;71.15;93235.03;4971208;28;20374;-85
2024/02/09 06:11:08;;;;;;;5.90;3.00;;;;;;;11.74;70.79;93236.38;4966206;28;20197;-84
2024/02/09 06:13:44;;;;;;;4.80;3.13;;;;;;;11.82;70.85;93229.28;4964304;28;20263;-86
2024/02/09 06:16:19;;;;;;;5.47;2.63;;;;;;;11.85;70.75;93213.34;4959541;29;20239;-85
2024/02/09 06:18:49;;;;;;;3.60;2.40;;;;;;;11.86;70.42;93217.47;4977142;28;20651;-85
2024/02/09 06:21:22;;;;;;;5.87;3.87;;;;;;;11.88;70.60;93221.38;4975560;28;20197;-84
2024/02/09 06:23:51;;;;;;;2.97;2.67;;;;;;;11.87;70.16;93213.88;4976525;28;20226;-85
2024/02/09 06:26:18;;;;;;;6.20;2.70;;;;;;;11.85;70.48;93227.00;4980027;28;20231;-85
2024/02/09 06:28:47;;;;;;;5.03;2.50;;;;;;;11.83;70.63;93225.69;4972450;28;20235;-83
2024/02/09 06:31:17;;;;;;;4.73;2.80;;;;;;;11.85;70.40;93226.22;4979478;28;20205;-85
2024/02/09 06:33:46;;;;;;;4.63;2.90;;;;;;;11.83;70.57;93226.47;4976321;28;20209;-85
2024/02/09 06:36:16;;;;;;;4.93;2.87;;;;;;;11.85;70.54;93229.59;4971974;28;20221;-85
2024/02/09 06:38:44;;;;;;;5.10;2.83;;;;;;;11.88;70.64;93231.69;4978851;28;20200;-85
2024/02/09 06:41:21;;;;;;;7.07;3.00;;;;;;;11.91;71.16;93249.25;4974597;28;20224;-84
2024/02/09 06:43:51;;;;;;;5.10;2.60;;;;;;;11.95;71.39;93265.00;4966846;28;20207;-85
2024/02/09 06:46:27;;;;;;;3.60;2.67;;;;;;;11.88;73.08;93328.88;4969322;28;20708;-84
2024/02/09 06:48:56;;;;;;;4.37;3.17;;;;;;;11.85;74.56;93383.50;4967457;28;20238;-84
2024/02/09 06:51:23;;;;;;;9.23;2.90;;;;;;;11.83;74.63;93378.56;4969174;28;20200;-83
2024/02/09 06:53:50;;;;;;;5.10;2.70;;;;;;;11.89;74.48;93382.78;4967500;28;20239;-84
2024/02/09 06:56:25;;;;;;;6.17;3.23;;;;;;;11.95;74.48;93384.38;4968052;28;20219;-84
2024/02/09 06:58:54;;;;;;;7.67;2.73;;;;;;;11.99;74.11;93371.81;4967691;28;20234;-86
2024/02/09 07:01:22;;;;;;;6.70;2.73;;;;;;;12.00;74.16;93366.41;4965533;28;20231;-85
2024/02/09 07:03:49;;;;;;;24.13;20.13;;;;;;;11.99;73.90;93362.28;4972890;28;20735;-85
2024/02/09 07:06:19;;;;;;;10.93;8.23;;;;;;;11.99;74.25;93371.81;4975883;28;20255;-84
2024/02/09 07:08:52;;;;;;;5.70;4.20;;;;;;;11.94;75.56;93400.88;4961559;28;20856;-83
2024/02/09 07:11:22;;;;;;;6.13;3.80;;;;;;;11.93;75.61;93411.47;4962848;28;20193;-83
2024/02/09 07:13:51;;;;;;;4.60;3.00;;;;;;;11.91;75.64;93414.25;4973376;28;20243;-82
2024/02/09 07:16:33;;;;;;;4.30;2.80;;;;;;;11.94;75.68;93418.91;4977157;28;20216;-85
2024/02/09 07:19:03;;;;;;;6.60;4.00;;;;;;;11.94;76.37;93438.78;4970814;28;20215;-85
2024/02/09 07:21:32;;;;;;;7.47;5.87;;;;;;;11.88;76.90;93447.47;4972195;28;20193;-84
2024/02/09 07:23:59;;;;;;;4.60;3.30;;;;;;;11.89;76.95;93454.19;4973023;28;20203;-83
2024/02/09 07:26:32;;;;;;;4.67;2.83;;;;;;;11.85;78.05;93466.78;4977434;28;20200;-83
2024/02/09 07:29:01;;;;;;;4.47;3.20;;;;;;;11.85;78.65;93484.03;4975484;28;20224;-84
2024/02/09 07:31:35;;;;;;;3.97;2.73;;;;;;;11.90;77.91;93469.44;4965400;28;20228;-84
2024/02/09 07:34:10;;;;;;;4.50;2.93;;;;;;;11.95;78.35;93481.59;4959812;28;20216;-85
2024/02/09 07:36:38;;;;;;;5.13;3.03;;;;;;;11.98;77.12;93450.97;4966039;28;20199;-84
2024/02/09 07:39:06;;;;;;;5.77;2.90;;;;;;;12.03;76.96;93432.19;4974276;28;20204;-84
2024/02/09 07:41:32;;;;;;;4.43;3.23;;;;;;;12.01;76.76;93445.34;4974698;28;20243;-84
2024/02/09 07:44:03;;;;;;;5.17;3.00;;;;;;;11.99;77.12;93452.53;4971368;28;20204;-85
2024/02/09 07:46:30;;;;;;;9.07;3.33;;;;;;;12.04;77.21;93446.66;4975500;28;20207;-85
2024/02/09 07:48:58;;;;;;;4.60;3.00;;;;;;;12.03;77.04;93440.72;4965103;28;20247;-85
2024/02/09 07:51:33;;;;;;;8.40;5.30;;;;;;;12.10;76.97;93440.56;4956125;28;20215;-85
2024/02/09 07:56:27;;;;;;;7.13;5.00;;;;;;;12.14;76.69;93425.38;4969695;23;20239;-84
2024/02/09 07:58:58;;;;;;;5.77;3.27;;;;;;;12.18;76.42;93432.41;4957105;29;20208;-84
2024/02/09 08:01:25;;;;;;;4.43;2.80;;;;;;;12.22;76.36;93430.91;4954648;29;20669;-85
2024/02/09 08:03:56;;;;;;;6.13;3.00;;;;;;;12.21;75.89;93413.09;4953039;29;20200;-84
2024/02/09 08:06:23;;;;;;;5.60;3.47;;;;;;;12.21;75.83;93413.09;4957305;28;20319;-85
2024/02/09 08:08:52;;;;;;;5.33;3.27;;;;;;;12.13;75.70;93427.16;4943275;29;20225;-86
2024/02/09 08:11:23;;;;;;;6.27;3.53;;;;;;;12.09;76.22;93436.41;4953564;29;20193;-84
2024/02/09 08:13:50;;;;;;;5.60;3.43;;;;;;;12.08;76.49;93445.97;4953529;29;20247;-84
2024/02/09 08:16:17;;;;;;;4.17;3.20;;;;;;;12.09;76.71;93449.31;4953417;29;20228;-85
2024/02/09 08:18:43;;;;;;;7.03;3.60;;;;;;;12.13;76.51;93436.69;4944952;29;20628;-85
2024/02/09 08:21:13;;;;;;;4.97;3.13;;;;;;;12.15;77.00;93444.97;4950140;29;20201;-85
2024/02/09 08:23:42;;;;;;;4.00;3.07;;;;;;;12.23;76.83;93437.63;4936923;29;20237;-86
2024/02/09 08:26:13;;;;;;;4.77;3.27;;;;;;;12.27;76.37;93428.41;4944827;29;20221;-84
2024/02/09 08:28:43;;;;;;;4.87;3.13;;;;;;;12.22;76.25;93419.81;4937974;29;20205;-83
2024/02/09 08:31:14;;;;;;;3.80;2.57;;;;;;;12.34;79.66;93508.19;4936357;29;20337;-84
2024/02/09 08:33:43;;;;;;;5.07;2.70;;;;;;;12.61;81.40;93557.34;4941413;29;20197;-84
2024/02/09 08:36:11;;;;;;;7.43;3.60;;;;;;;12.95;80.47;93527.78;4950809;29;20296;-83
2024/02/09 08:38:37;;;;;;;10.13;7.60;;;;;;;13.20;76.93;93434.31;4937806;29;20202;-83
2024/02/09 08:41:05;;;;;;;9.07;5.63;;;;;;;13.35;73.91;93332.88;4951479;29;20204;-85
2024/02/09 08:43:32;;;;;;;7.27;3.70;;;;;;;13.36;72.83;93300.84;4949097;29;20198;-84
2024/02/09 08:45:59;;;;;;;4.57;3.00;;;;;;;13.28;72.61;93299.47;4948250;29;20221;-84
2024/02/09 08:48:25;;;;;;;4.43;3.03;;;;;;;13.27;72.38;93282.44;4954818;29;20855;-84
2024/02/09 08:50:51;;;;;;;6.33;3.00;;;;;;;13.34;71.76;93256.38;4953638;29;20279;-84
2024/02/09 08:53:18;;;;;;;4.93;3.30;;;;;;;13.36;71.57;93260.25;4946391;29;20263;-85
2024/02/09 08:55:44;;;;;;;3.73;2.70;;;;;;;13.36;71.34;93242.16;4947496;29;20237;-85
2024/02/09 08:58:11;;;;;;;5.83;3.00;;;;;;;13.18;71.75;93271.00;4954054;29;20257;-85
2024/02/09 09:00:38;;;;;;;3.87;2.63;;;;;;;13.14;72.52;93299.09;4956239;29;20205;-84
2024/02/09 09:03:05;;;;;;;5.00;2.87;;;;;;;13.18;72.21;93306.41;4960517;29;20205;-84
2024/02/09 09:05:31;;;;;;;6.00;3.07;;;;;;;13.20;72.10;93301.75;4950477;29;20224;-84
2024/02/09 09:07:59;;;;;;;5.87;3.07;;;;;;;13.14;72.50;93303.50;4948148;29;20429;-84
2024/02/09 09:10:26;;;;;;;4.97;3.20;;;;;;;13.13;72.52;93313.03;4943854;29;20225;-85
2024/02/09 09:12:53;;;;;;;4.80;2.80;;;;;;;13.09;72.72;93324.91;4936642;29;20206;-85
2024/02/09 09:15:19;;;;;;;5.17;2.70;;;;;;;13.12;72.81;93323.63;4935760;29;20214;-84
2024/02/09 09:17:48;;;;;;;33.00;29.43;;;;;;;13.12;73.40;93339.91;4940465;29;20221;-85
2024/02/09 09:20:14;;;;;;;17.10;15.17;;;;;;;13.14;73.03;93322.34;4940077;29;20229;-83
2024/02/09 09:22:41;;;;;;;21.30;16.03;;;;;;;13.16;72.87;93314.41;4947176;29;20665;-84
2024/02/09 09:25:09;;;;;;;11.17;6.43;;;;;;;13.11;72.47;93294.44;4954230;28;20693;-84
2024/02/09 09:27:35;;;;;;;8.50;4.20;;;;;;;13.11;72.47;93302.19;4958518;29;20201;-83
2024/02/09 09:30:04;;;;;;;7.57;2.90;;;;;;;13.06;72.65;93307.34;4956018;29;20224;-85
2024/02/09 09:32:32;;;;;;;5.67;3.10;;;;;;;13.03;72.61;93296.72;4956694;29;20207;-82
2024/02/09 09:35:00;;;;;;;6.07;2.60;;;;;;;13.06;72.20;93281.50;4946190;29;20221;-85
2024/02/09 09:40:39;;;;;;;6.27;2.77;;;;;;;13.24;71.38;93248.56;4954178;29;20213;-84
2024/02/09 09:43:53;;;;;;;6.70;2.77;;;;;;;13.32;70.48;93219.66;4951295;29;20316;-85
2024/02/09 09:46:52;;;;;;;6.50;2.70;;;;;;;13.33;70.34;93216.03;4955505;29;20225;-84
2024/02/09 09:53:07;;;;;;;7.43;2.83;;;;;;;13.47;69.67;93183.53;4951292;29;20200;-85
2024/02/09 09:55:59;;;;;;;3.00;2.37;;;;;;;13.57;69.24;93162.13;4948061;23;20433;-84
2024/02/09 09:58:28;;;;;;;5.63;2.83;;;;;;;13.56;68.63;93126.97;4924134;29;20296;-84
2024/02/09 10:03:39;;;;;;;7.30;5.20;;;;;;;13.56;68.77;93143.25;4953663;29;20228;-85
2024/02/09 10:06:05;;;;;;;8.10;7.00;;;;;;;13.62;68.05;93110.44;4953752;28;20225;-84
2024/02/09 10:08:35;;;;;;;5.43;3.70;;;;;;;13.71;67.86;93101.13;4958477;29;20213;-85
2024/02/09 10:11:02;;;;;;;4.97;2.77;;;;;;;13.81;66.82;93067.56;4956739;29;20795;-85
2024/02/09 10:13:29;;;;;;;4.23;1.97;;;;;;;13.94;66.27;93048.94;4954091;29;20208;-85
2024/02/09 10:15:57;;;;;;;3.27;2.20;;;;;;;14.10;65.54;93018.66;4938860;29;20244;-84
2024/02/09 10:18:23;;;;;;;7.32;2.17;;;;;;;14.30;64.89;92992.72;4943092;29;20202;-85
2024/02/09 10:20:52;;;;;;;2.70;1.80;;;;;;;14.45;63.51;92935.75;4954482;29;20193;-84
2024/02/09 10:23:20;;;;;;;4.53;2.00;;;;;;;14.50;61.29;92819.25;4939250;29;20216;-84
2024/02/09 10:25:48;;;;;;;6.15;1.85;;;;;;;14.53;61.16;92799.84;4957047;29;20719;-84
2024/02/09 10:28:15;;;;;;;5.93;1.60;;;;;;;14.55;60.61;92753.72;4946224;28;20208;-83
2024/02/09 10:30:43;;;;;;;7.53;1.55;;;;;;;14.57;60.38;92743.13;4945285;29;20220;-83
2024/02/09 10:33:10;;;;;;;3.42;1.40;;;;;;;14.50;60.81;92753.75;4950382;29;20207;-84
2024/02/09 10:35:37;;;;;;;6.20;2.00;;;;;;;14.45;61.48;92788.22;4957476;28;20223;-84
2024/02/09 10:38:05;;;;;;;4.13;1.90;;;;;;;14.44;61.66;92809.19;4956856;29;20212;-84
2024/02/09 10:40:34;;;;;;;57.75;49.83;;;;;;;14.32;61.59;92798.38;4955828;29;20201;-83
2024/02/09 10:43:05;;;;;;;22.90;18.65;;;;;;;14.32;62.78;92850.91;4955459;29;20244;-83
2024/02/09 10:45:32;;;;;;;15.85;12.27;;;;;;;14.37;62.80;92860.47;4950240;29;20236;-84
2024/02/09 10:48:00;;;;;;;9.75;3.33;;;;;;;14.22;62.36;92826.91;4937737;29;20300;-84
2024/02/09 10:50:29;;;;;;;4.30;2.20;;;;;;;14.16;62.73;92847.63;4936637;29;20228;-85
2024/02/09 10:53:00;;;;;;;2.30;1.85;;;;;;;14.30;63.04;92870.31;4950674;29;20671;-85
2024/02/09 10:55:34;;;;;;;4.55;1.77;;;;;;;14.43;62.68;92859.44;4955079;29;20232;-83
2024/02/09 10:58:04;;;;;;;9.25;2.60;;;;;;;14.38;63.04;92867.97;4950216;29;20439;-84
2024/02/09 11:00:30;;;;;;;5.40;2.03;;;;;;;14.36;62.15;92828.63;4949940;29;20617;-84
2024/02/09 11:02:57;;;;;;;3.47;1.80;;;;;;;14.23;61.52;92782.66;4943945;29;20217;-84
2024/02/09 11:05:24;;;;;;;4.93;1.90;;;;;;;14.22;62.97;92835.44;4946096;29;20225;-84
2024/02/09 11:07:52;;;;;;;2.58;1.70;;;;;;;14.36;62.82;92843.38;4949180;29;20795;-84
2024/02/09 11:10:19;;;;;;;6.78;2.03;;;;;;;14.46;62.61;92823.41;4950946;29;20216;-84
2024/02/09 11:12:57;;;;;;;4.40;1.85;;;;;;;14.52;62.02;92801.66;4951005;29;20197;-83
2024/02/09 11:15:25;;;;;;;4.80;2.17;;;;;;;14.50;61.27;92743.41;4942236;29;20232;-84
2024/02/09 11:17:51;;;;;;;5.25;2.25;;;;;;;14.49;61.32;92749.63;4953447;29;20212;-83
2024/02/09 11:20:18;;;;;;;5.03;2.50;;;;;;;14.52;61.80;92774.97;4942632;29;20202;-83
2024/02/09 11:22:48;;;;;;;5.50;2.30;;;;;;;14.62;61.97;92787.88;4952710;29;20208;-84
2024/02/09 11:25:15;;;;;;;8.55;2.25;;;;;;;14.69;61.58;92769.41;4943997;29;20228;-83
2024/02/09 11:27:47;;;;;;;6.40;2.15;;;;;;;14.63;59.94;92690.22;4936047;29;20239;-85
2024/02/09 11:30:14;;;;;;;5.07;2.22;;;;;;;14.70;60.90;92709.59;4936838;29;20232;-84
2024/02/09 11:32:44;;;;;;;5.57;2.30;;;;;;;14.73;60.76;92709.06;4945939;29;20197;-83
2024/02/09 11:35:13;;;;;;;6.60;2.03;;;;;;;14.70;60.89;92719.19;4944012;29;20222;-84
2024/02/09 11:37:46;;;;;;;7.35;2.38;;;;;;;14.61;59.99;92643.91;4947127;29;20197;-83
2024/02/09 11:40:16;;;;;;;7.80;2.20;;;;;;;14.70;60.69;92691.47;4947485;29;20193;-83
2024/02/09 11:42:44;;;;;;;8.00;2.85;;;;;;;14.68;59.75;92631.41;4954049;29;20240;-83
2024/02/09 11:45:11;;;;;;;12.30;7.72;;;;;;;14.70;59.59;92621.56;4955067;28;20561;-83
2024/02/09 11:47:39;;;;;;;11.15;6.85;;;;;;;14.85;60.07;92639.53;4954513;29;20232;-83
2024/02/09 11:50:08;;;;;;;13.98;10.02;;;;;;;14.96;59.65;92613.53;4934562;28;20285;-83
2024/02/09 11:52:35;;;;;;;9.00;2.75;;;;;;;14.96;58.90;92583.22;4953863;29;20205;-83
2024/02/09 11:55:02;;;;;;;15.77;3.42;;;;;;;14.88;57.37;92482.03;4938221;29;20272;-83
2024/02/09 11:57:30;;;;;;;7.85;2.78;;;;;;;14.85;56.96;92444.50;4935268;29;20213;-82
2024/02/09 12:00:00;;;;;;;5.45;2.35;;;;;;;14.86;57.63;92470.13;4941226;29;20217;-83
2024/02/09 12:02:31;;;;;;;6.93;2.47;;;;;;;14.81;57.42;92452.09;4938248;29;20197;-83
2024/02/09 12:04:58;;;;;;;8.55;2.10;;;;;;;14.95;57.93;92495.41;4951941;29;20248;-83
2024/02/09 12:07:26;;;;;;;8.35;2.78;;;;;;;14.91;57.63;92486.66;4934822;29;20211;-83
2024/02/09 12:09:54;;;;;;;6.93;2.63;;;;;;;14.90;57.88;92493.66;4937067;29;20696;-82
2024/02/09 12:12:22;;;;;;;7.53;2.53;;;;;;;14.97;57.86;92506.28;4947395;29;20208;-85
2024/02/09 12:14:52;;;;;;;6.72;2.17;;;;;;;14.94;57.21;92462.78;4952304;29;20223;-84
2024/02/09 12:17:19;;;;;;;6.68;2.30;;;;;;;14.90;57.53;92472.16;4946069;29;20304;-84
2024/02/09 12:19:45;;;;;;;7.18;2.30;;;;;;;14.80;57.21;92475.66;4952603;29;20200;-84
2024/02/09 12:22:12;;;;;;;7.30;2.35;;;;;;;14.81;57.64;92484.97;4933897;29;20197;-83
2024/02/09 12:24:46;;;;;;;7.78;2.10;;;;;;;14.83;57.73;92488.81;4946883;29;20227;-84
2024/02/09 12:27:14;;;;;;;9.23;2.28;;;;;;;14.75;57.15;92457.59;4954679;29;20201;-84
2024/02/09 12:29:41;;;;;;;8.07;2.28;;;;;;;14.54;57.18;92445.94;4941208;29;20221;-85
2024/02/09 12:32:09;;;;;;;9.05;2.40;;;;;;;14.53;57.16;92447.75;4940943;29;20233;-85
2024/02/09 12:34:46;;;;;;;8.77;2.63;;;;;;;14.46;57.67;92462.84;4948662;29;20255;-84
2024/02/09 12:37:15;;;;;;;9.15;2.25;;;;;;;14.41;57.53;92461.13;4935612;29;20205;-85
2024/02/09 12:39:47;;;;;;;8.13;2.50;;;;;;;14.38;57.43;92463.44;4948529;29;20233;-83
2024/02/09 12:42:17;;;;;;;8.52;2.38;;;;;;;14.28;57.97;92485.00;4947376;29;20209;-83
2024/02/09 12:44:44;;;;;;;5.18;1.98;;;;;;;14.29;57.97;92478.03;4951028;29;20224;-84
2024/02/09 12:47:11;;;;;;;6.97;4.07;;;;;;;14.32;58.44;92511.88;4942207;29;20311;-84
2024/02/09 12:49:37;;;;;;;15.32;10.88;;;;;;;14.27;58.33;92486.06;4937199;29;20213;-84
2024/02/09 12:52:08;;;;;;;9.82;3.17;;;;;;;14.28;58.65;92504.94;4957313;28;20857;-83
2024/02/09 12:54:34;;;;;;;5.75;2.30;;;;;;;14.24;58.52;92491.03;4941173;29;20292;-84
2024/02/09 12:57:18;;;;;;;;;;;;;;;;;;;;;
2024/02/09 12:59:50;;;;;;;6.13;2.25;;;;;;;14.30;58.67;92510.63;4932706;29;20208;-84
2024/02/09 13:06:04;;;;;;;11.75;2.35;;;;;;;14.46;58.54;92519.78;4927048;29;20231;-84
2024/02/09 13:15:38;;;;;;;;;;;;;;;;;;;;;
2024/02/09 13:18:31;;;;;;;8.82;2.60;;;;;;;14.38;59.27;92543.69;4898874;29;20222;-84
2024/02/09 13:21:21;;;;;;;11.38;3.05;;;;;;;14.29;60.13;92579.72;4959831;29;20197;-83
2024/02/09 13:23:50;;;;;;;7.15;2.65;;;;;;;14.32;60.18;92570.63;4948051;28;20879;-84
2024/02/09 13:29:25;;;;;;;7.28;3.00;;;;;;;14.41;59.81;92554.28;4954762;29;20612;-83
2024/02/09 13:31:54;;;;;;;7.32;2.90;;;;;;;14.36;59.85;92550.94;4953111;29;20252;-83
2024/02/09 13:34:22;;;;;;;12.10;3.10;;;;;;;14.38;59.77;92551.44;4943183;29;20283;-83
2024/02/09 13:37:05;;;;;;;6.72;3.05;;;;;;;14.48;59.79;92541.00;4952494;29;20792;-83
2024/02/09 13:39:32;;;;;;;8.82;2.65;;;;;;;14.34;60.05;92540.84;4955318;29;20678;-84
2024/02/09 13:42:01;;;;;;;7.38;2.92;;;;;;;14.37;60.45;92571.38;4944911;29;20690;-83
2024/02/09 13:44:30;;;;;;;7.28;3.03;;;;;;;14.47;60.58;92579.06;4941379;29;20227;-84
2024/02/09 13:46:58;;;;;;;9.25;2.50;;;;;;;14.45;60.33;92562.25;4946040;29;20237;-84
2024/02/09 13:50:01;;;;;;;7.38;2.47;;;;;;;14.34;60.11;92548.63;4941038;29;20214;-83
2024/02/09 13:52:39;;;;;;;7.75;2.90;;;;;;;14.20;59.98;92546.94;4939867;29;20701;-83
2024/02/09 13:58:19;;;;;;;7.65;2.60;;;;;;;14.02;60.45;92553.56;4939619;29;20209;-84
2024/02/09 14:01:00;;;;;;;8.48;2.80;;;;;;;13.98;60.70;92547.41;4941066;29;20582;-83
2024/02/09 14:03:58;;;;;;;8.63;4.72;;;;;;;13.96;60.49;92555.44;4951460;28;20200;-84
2024/02/09 14:06:46;;;;;;;11.65;6.15;;;;;;;13.98;60.44;92568.09;4959533;29;20256;-83
2024/02/09 14:09:36;;;;;;;7.20;3.08;;;;;;;13.98;60.82;92589.56;4931651;29;20232;-85
2024/02/09 14:12:35;;;;;;;6.82;2.35;;;;;;;14.02;61.04;92592.38;4957474;29;20308;-84
2024/02/09 14:15:05;;;;;;;8.70;3.13;;;;;;;14.00;61.45;92615.91;4958366;29;20252;-84
2024/02/09 14:17:34;;;;;;;8.10;3.00;;;;;;;13.92;61.24;92598.38;4956194;29;20277;-83
2024/02/09 14:20:53;;;;;;;6.50;3.05;;;;;;;13.94;60.82;92578.19;4953572;29;20237;-84
2024/02/09 14:23:42;;;;;;;7.28;2.70;;;;;;;13.95;60.71;92559.06;4959596;29;20289;-84
2024/02/09 14:26:22;;;;;;;9.93;3.13;;;;;;;13.91;61.26;92573.56;4957265;29;20223;-84
2024/02/09 14:28:53;;;;;;;10.03;3.60;;;;;;;13.88;60.87;92568.94;4951661;29;20197;-84
2024/02/09 14:37:41;;;;;;;5.47;2.78;;;;;;;13.90;61.95;92618.56;4940949;28;20669;-84
2024/02/09 14:40:30;;;;;;;4.70;3.00;;;;;;;14.03;61.45;92606.84;4929857;29;20693;-85
2024/02/09 14:52:59;;;;;;;;;;;;;;;;;;;;;
2024/02/09 14:55:29;;;;;;;6.65;3.08;;;;;;;14.06;62.80;92670.97;4954882;29;20317;-84
2024/02/09 14:58:13;;;;;;;5.53;3.13;;;;;;;14.06;62.91;92679.50;4938607;29;20201;-84